sensor_id;sensor_type;location;lat;lon;timestamp;pressure;altitude;pressure_sealevel;temperature;humidity
71785;BME280;59633;52.266;5.134;2022-08-21T00:00:34;101874.19;;;15.25;85.96
71785;BME280;59633;52.266;5.134;2022-08-21T00:03:07;101868.72;;;15.20;86.72
71785;BME280;59633;52.266;5.134;2022-08-21T00:05:35;101867.88;;;15.19;86.90
71785;BME280;59633;52.266;5.134;2022-08-21T00:08:01;101865.03;;;15.21;86.41
71785;BME280;59633;52.266;5.134;2022-08-21T00:10:26;101865.84;;;15.21;85.99
71785;BME280;59633;52.266;5.134;2022-08-21T00:12:51;101864.44;;;15.19;86.76
71785;BME280;59633;52.266;5.134;2022-08-21T00:15:18;101857.69;;;15.23;85.57
71785;BME280;59633;52.266;5.134;2022-08-21T00:17:44;101858.34;;;15.18;87.21
71785;BME280;59633;52.266;5.134;2022-08-21T00:20:10;101854.66;;;15.19;86.72
71785;BME280;59633;52.266;5.134;2022-08-21T00:22:35;101858.53;;;15.17;86.51
71785;BME280;59633;52.266;5.134;2022-08-21T00:25:01;101857.75;;;15.16;86.41
71785;BME280;59633;52.266;5.134;2022-08-21T00:27:27;101852.44;;;15.16;87.08
71785;BME280;59633;52.266;5.134;2022-08-21T00:29:52;101854.84;;;15.18;86.48
71785;BME280;59633;52.266;5.134;2022-08-21T00:32:22;101852.44;;;15.16;86.83
71785;BME280;59633;52.266;5.134;2022-08-21T00:34:48;101846.31;;;15.16;86.86
71785;BME280;59633;52.266;5.134;2022-08-21T00:37:13;101850.81;;;15.15;86.43
71785;BME280;59633;52.266;5.134;2022-08-21T00:39:39;101843.31;;;15.12;87.11
71785;BME280;59633;52.266;5.134;2022-08-21T00:42:04;101846.97;;;15.11;87.07
71785;BME280;59633;52.266;5.134;2022-08-21T00:44:29;101842.69;;;15.10;87.24
71785;BME280;59633;52.266;5.134;2022-08-21T00:46:56;101848.81;;;15.10;86.91
71785;BME280;59633;52.266;5.134;2022-08-21T00:49:21;101846.56;;;15.07;87.29
71785;BME280;59633;52.266;5.134;2022-08-21T00:51:49;101841.50;;;15.06;87.19
71785;BME280;59633;52.266;5.134;2022-08-21T00:54:15;101844.75;;;15.01;87.75
71785;BME280;59633;52.266;5.134;2022-08-21T00:56:41;101836.22;;;14.99;88.06
71785;BME280;59633;52.266;5.134;2022-08-21T00:59:07;101836.22;;;14.99;87.33
71785;BME280;59633;52.266;5.134;2022-08-21T01:01:32;101846.19;;;14.97;88.16
71785;BME280;59633;52.266;5.134;2022-08-21T01:03:58;101850.88;;;14.95;88.55
71785;BME280;59633;52.266;5.134;2022-08-21T01:06:23;101846.41;;;14.96;88.56
71785;BME280;59633;52.266;5.134;2022-08-21T01:08:48;101844.34;;;14.98;87.72
71785;BME280;59633;52.266;5.134;2022-08-21T01:11:16;101842.16;;;14.94;89.01
71785;BME280;59633;52.266;5.134;2022-08-21T01:13:42;101853.53;;;14.95;89.08
71785;BME280;59633;52.266;5.134;2022-08-21T01:16:11;101853.34;;;14.97;88.48
71785;BME280;59633;52.266;5.134;2022-08-21T01:18:37;101848.03;;;14.97;88.69
71785;BME280;59633;52.266;5.134;2022-08-21T01:21:10;101851.50;;;14.97;88.57
71785;BME280;59633;52.266;5.134;2022-08-21T01:23:37;101854.13;;;14.97;88.82
71785;BME280;59633;52.266;5.134;2022-08-21T01:26:03;101849.88;;;14.96;88.34
71785;BME280;59633;52.266;5.134;2022-08-21T01:28:29;101846.84;;;14.92;89.01
71785;BME280;59633;52.266;5.134;2022-08-21T01:30:56;101847.63;;;14.93;88.76
71785;BME280;59633;52.266;5.134;2022-08-21T01:33:22;101858.66;;;14.90;89.47
71785;BME280;59633;52.266;5.134;2022-08-21T01:35:49;101851.94;;;14.87;89.68
71785;BME280;59633;52.266;5.134;2022-08-21T01:38:14;101847.47;;;14.88;88.95
71785;BME280;59633;52.266;5.134;2022-08-21T01:40:40;101844.00;;;14.87;88.36
71785;BME280;59633;52.266;5.134;2022-08-21T01:43:05;101840.75;;;14.85;88.99
71785;BME280;59633;52.266;5.134;2022-08-21T01:45:30;101841.78;;;14.84;88.39
71785;BME280;59633;52.266;5.134;2022-08-21T01:47:55;101840.34;;;14.82;89.11
71785;BME280;59633;52.266;5.134;2022-08-21T01:50:21;101838.72;;;14.81;88.94
71785;BME280;59633;52.266;5.134;2022-08-21T01:52:46;101832.84;;;14.79;89.54
71785;BME280;59633;52.266;5.134;2022-08-21T01:55:11;101842.38;;;14.80;88.84
71785;BME280;59633;52.266;5.134;2022-08-21T01:57:37;101832.22;;;14.77;89.36
71785;BME280;59633;52.266;5.134;2022-08-21T02:00:07;101832.03;;;14.78;89.26
71785;BME280;59633;52.266;5.134;2022-08-21T02:02:33;101825.09;;;14.77;89.09
71785;BME280;59633;52.266;5.134;2022-08-21T02:04:58;101828.78;;;14.76;89.67
71785;BME280;59633;52.266;5.134;2022-08-21T02:07:24;101820.44;;;14.72;90.14
71785;BME280;59633;52.266;5.134;2022-08-21T02:09:49;101827.34;;;14.73;89.82
71785;BME280;59633;52.266;5.134;2022-08-21T02:12:14;101828.38;;;14.72;90.08
71785;BME280;59633;52.266;5.134;2022-08-21T02:14:40;101825.94;;;14.71;90.47
71785;BME280;59633;52.266;5.134;2022-08-21T02:17:05;101827.56;;;14.72;90.07
71785;BME280;59633;52.266;5.134;2022-08-21T02:19:30;101832.03;;;14.71;90.37
71785;BME280;59633;52.266;5.134;2022-08-21T02:21:55;101823.28;;;14.71;90.56
71785;BME280;59633;52.266;5.134;2022-08-21T02:24:20;101819.03;;;14.70;91.09
71785;BME280;59633;52.266;5.134;2022-08-21T02:26:46;101817.81;;;14.72;91.03
71785;BME280;59633;52.266;5.134;2022-08-21T02:29:11;101823.28;;;14.71;90.59
71785;BME280;59633;52.266;5.134;2022-08-21T02:31:37;101817.41;;;14.69;91.04
71785;BME280;59633;52.266;5.134;2022-08-21T02:34:02;101811.31;;;14.68;91.24
71785;BME280;59633;52.266;5.134;2022-08-21T02:36:27;101813.94;;;14.68;90.87
71785;BME280;59633;52.266;5.134;2022-08-21T02:38:52;101817.84;;;14.66;91.05
71785;BME280;59633;52.266;5.134;2022-08-21T02:41:19;101814.97;;;14.67;90.82
71785;BME280;59633;52.266;5.134;2022-08-21T02:43:44;101808.25;;;14.65;91.41
71785;BME280;59633;52.266;5.134;2022-08-21T02:46:11;101810.91;;;14.65;91.27
71785;BME280;59633;52.266;5.134;2022-08-21T02:48:37;101812.75;;;14.64;91.45
71785;BME280;59633;52.266;5.134;2022-08-21T02:51:04;101813.75;;;14.63;91.31
71785;BME280;59633;52.266;5.134;2022-08-21T02:53:30;101816.81;;;14.60;91.87
71785;BME280;59633;52.266;5.134;2022-08-21T02:55:56;101811.53;;;14.60;91.23
71785;BME280;59633;52.266;5.134;2022-08-21T02:58:23;101809.91;;;14.59;91.81
71785;BME280;59633;52.266;5.134;2022-08-21T03:00:49;101809.91;;;14.59;92.02
71785;BME280;59633;52.266;5.134;2022-08-21T03:03:14;101805.66;;;14.58;92.07
71785;BME280;59633;52.266;5.134;2022-08-21T03:05:40;101802.41;;;14.56;92.60
71785;BME280;59633;52.266;5.134;2022-08-21T03:08:06;101806.00;;;14.55;91.79
71785;BME280;59633;52.266;5.134;2022-08-21T03:10:40;101797.47;;;14.53;92.36
71785;BME280;59633;52.266;5.134;2022-08-21T03:13:05;101796.47;;;14.54;92.41
71785;BME280;59633;52.266;5.134;2022-08-21T03:15:31;101796.88;;;14.51;92.68
71785;BME280;59633;52.266;5.134;2022-08-21T03:17:56;101787.34;;;14.50;92.22
71785;BME280;59633;52.266;5.134;2022-08-21T03:20:23;101791.78;;;14.49;92.66
71785;BME280;59633;52.266;5.134;2022-08-21T03:22:49;101792.63;;;14.50;92.43
71785;BME280;59633;52.266;5.134;2022-08-21T03:25:15;101783.06;;;14.49;92.68
71785;BME280;59633;52.266;5.134;2022-08-21T03:27:41;101786.72;;;14.48;92.88
71785;BME280;59633;52.266;5.134;2022-08-21T03:30:06;101792.00;;;14.48;92.90
71785;BME280;59633;52.266;5.134;2022-08-21T03:32:32;101786.13;;;14.46;93.18
71785;BME280;59633;52.266;5.134;2022-08-21T03:34:57;101783.47;;;14.46;93.45
71785;BME280;59633;52.266;5.134;2022-08-21T03:37:23;101788.13;;;14.44;93.12
71785;BME280;59633;52.266;5.134;2022-08-21T03:39:49;101781.03;;;14.44;92.81
71785;BME280;59633;52.266;5.134;2022-08-21T03:42:14;101783.06;;;14.42;93.17
71785;BME280;59633;52.266;5.134;2022-08-21T03:44:39;101778.00;;;14.41;93.43
71785;BME280;59633;52.266;5.134;2022-08-21T03:47:05;101779.00;;;14.40;93.54
71785;BME280;59633;52.266;5.134;2022-08-21T03:49:30;101778.78;;;14.41;93.27
71785;BME280;59633;52.266;5.134;2022-08-21T03:51:55;101776.59;;;14.38;93.25
71785;BME280;59633;52.266;5.134;2022-08-21T03:54:20;101772.28;;;14.37;93.30
71785;BME280;59633;52.266;5.134;2022-08-21T03:56:45;101771.50;;;14.37;93.03
71785;BME280;59633;52.266;5.134;2022-08-21T03:59:11;101768.06;;;14.36;93.76
71785;BME280;59633;52.266;5.134;2022-08-21T04:01:36;101772.50;;;14.35;93.41
71785;BME280;59633;52.266;5.134;2022-08-21T04:04:02;101767.66;;;14.32;93.53
71785;BME280;59633;52.266;5.134;2022-08-21T04:06:27;101769.47;;;14.32;93.09
71785;BME280;59633;52.266;5.134;2022-08-21T04:08:52;101770.69;;;14.29;93.06
71785;BME280;59633;52.266;5.134;2022-08-21T04:11:18;101768.03;;;14.29;93.48
71785;BME280;59633;52.266;5.134;2022-08-21T04:13:44;101769.88;;;14.29;92.81
71785;BME280;59633;52.266;5.134;2022-08-21T04:16:09;101774.38;;;14.28;93.92
71785;BME280;59633;52.266;5.134;2022-08-21T04:18:34;101772.97;;;14.26;94.08
71785;BME280;59633;52.266;5.134;2022-08-21T04:20:59;101776.41;;;14.26;93.75
71785;BME280;59633;52.266;5.134;2022-08-21T04:23:25;101783.53;;;14.26;93.78
71785;BME280;59633;52.266;5.134;2022-08-21T04:25:51;101779.44;;;14.23;93.59
71785;BME280;59633;52.266;5.134;2022-08-21T04:28:16;101779.66;;;14.22;93.70
71785;BME280;59633;52.266;5.134;2022-08-21T04:30:42;101785.75;;;14.22;93.91
71785;BME280;59633;52.266;5.134;2022-08-21T04:33:08;101777.00;;;14.22;93.45
71785;BME280;59633;52.266;5.134;2022-08-21T04:35:33;101783.13;;;14.22;93.42
71785;BME280;59633;52.266;5.134;2022-08-21T04:37:58;101787.56;;;14.22;93.61
71785;BME280;59633;52.266;5.134;2022-08-21T04:40:24;101786.16;;;14.19;94.01
71785;BME280;59633;52.266;5.134;2022-08-21T04:42:54;101786.34;;;14.18;93.88
71785;BME280;59633;52.266;5.134;2022-08-21T04:45:24;101791.44;;;14.19;94.07
71785;BME280;59633;52.266;5.134;2022-08-21T04:47:51;101802.63;;;14.21;94.07
71785;BME280;59633;52.266;5.134;2022-08-21T04:50:16;101798.97;;;14.22;94.48
71785;BME280;59633;52.266;5.134;2022-08-21T04:52:42;101799.78;;;14.23;94.08
71785;BME280;59633;52.266;5.134;2022-08-21T04:55:07;101803.84;;;14.25;94.26
71785;BME280;59633;52.266;5.134;2022-08-21T04:57:33;101801.59;;;14.29;94.54
71785;BME280;59633;52.266;5.134;2022-08-21T04:59:59;101802.22;;;14.31;93.82
71785;BME280;59633;52.266;5.134;2022-08-21T05:02:25;101797.53;;;14.33;93.87
71785;BME280;59633;52.266;5.134;2022-08-21T05:04:51;101795.50;;;14.35;93.82
71785;BME280;59633;52.266;5.134;2022-08-21T05:07:22;101799.34;;;14.39;93.79
71785;BME280;59633;52.266;5.134;2022-08-21T05:09:49;101803.63;;;14.40;94.08
71785;BME280;59633;52.266;5.134;2022-08-21T05:12:15;101805.22;;;14.41;94.07
71785;BME280;59633;52.266;5.134;2022-08-21T05:14:40;101806.44;;;14.45;94.05
71785;BME280;59633;52.266;5.134;2022-08-21T05:17:07;101798.31;;;14.47;94.08
71785;BME280;59633;52.266;5.134;2022-08-21T05:19:32;101805.59;;;14.51;93.93
71785;BME280;59633;52.266;5.134;2022-08-21T05:21:57;101800.94;;;14.53;93.95
71785;BME280;59633;52.266;5.134;2022-08-21T05:24:23;101809.28;;;14.57;94.04
71785;BME280;59633;52.266;5.134;2022-08-21T05:26:48;101806.00;;;14.62;94.12
71785;BME280;59633;52.266;5.134;2022-08-21T05:29:14;101813.34;;;14.66;93.95
71785;BME280;59633;52.266;5.134;2022-08-21T05:31:39;101808.47;;;14.70;94.11
71785;BME280;59633;52.266;5.134;2022-08-21T05:34:05;101814.72;;;14.76;93.82
71785;BME280;59633;52.266;5.134;2022-08-21T05:36:31;101810.03;;;14.78;94.00
71785;BME280;59633;52.266;5.134;2022-08-21T05:38:56;101816.31;;;14.83;93.84
71785;BME280;59633;52.266;5.134;2022-08-21T05:41:21;101815.50;;;14.89;94.07
71785;BME280;59633;52.266;5.134;2022-08-21T05:43:47;101815.09;;;14.92;94.12
71785;BME280;59633;52.266;5.134;2022-08-21T05:46:12;101815.03;;;14.99;93.61
71785;BME280;59633;52.266;5.134;2022-08-21T05:48:37;101812.59;;;15.04;93.69
71785;BME280;59633;52.266;5.134;2022-08-21T05:51:06;101816.00;;;15.11;93.41
71785;BME280;59633;52.266;5.134;2022-08-21T05:53:32;101811.69;;;15.17;93.63
71785;BME280;59633;52.266;5.134;2022-08-21T05:55:57;101813.50;;;15.23;93.55
71785;BME280;59633;52.266;5.134;2022-08-21T05:58:23;101821.63;;;15.28;93.70
71785;BME280;59633;52.266;5.134;2022-08-21T06:00:49;101810.38;;;15.33;93.46
71785;BME280;59633;52.266;5.134;2022-08-21T06:03:20;101805.69;;;15.42;92.85
71785;BME280;59633;52.266;5.134;2022-08-21T06:05:46;101804.81;;;15.48;93.27
71785;BME280;59633;52.266;5.134;2022-08-21T06:08:11;101804.56;;;15.56;92.92
71785;BME280;59633;52.266;5.134;2022-08-21T06:10:36;101800.00;;;15.63;92.83
71785;BME280;59633;52.266;5.134;2022-08-21T06:13:02;101800.78;;;15.70;92.31
71785;BME280;59633;52.266;5.134;2022-08-21T06:15:28;101796.03;;;15.79;91.80
71785;BME280;59633;52.266;5.134;2022-08-21T06:17:53;101794.97;;;15.87;91.36
71785;BME280;59633;52.266;5.134;2022-08-21T06:20:19;101788.78;;;15.93;92.13
71785;BME280;59633;52.266;5.134;2022-08-21T06:22:44;101800.16;;;16.00;91.92
71785;BME280;59633;52.266;5.134;2022-08-21T06:25:09;101799.88;;;16.08;92.61
71785;BME280;59633;52.266;5.134;2022-08-21T06:27:35;101801.44;;;16.16;92.09
71785;BME280;59633;52.266;5.134;2022-08-21T06:30:00;101799.50;;;16.23;91.86
71785;BME280;59633;52.266;5.134;2022-08-21T06:32:25;101794.16;;;16.30;91.59
71785;BME280;59633;52.266;5.134;2022-08-21T06:35:05;101793.66;;;16.40;93.18
71785;BME280;59633;52.266;5.134;2022-08-21T06:37:35;101798.66;;;16.48;92.57
71785;BME280;59633;52.266;5.134;2022-08-21T06:40:01;101800.81;;;16.58;92.09
71785;BME280;59633;52.266;5.134;2022-08-21T06:42:26;101790.69;;;16.66;90.78
71785;BME280;59633;52.266;5.134;2022-08-21T06:44:59;101805.31;;;16.76;91.83
71785;BME280;59633;52.266;5.134;2022-08-21T06:47:24;101803.97;;;16.85;91.39
71785;BME280;59633;52.266;5.134;2022-08-21T06:49:49;101795.47;;;16.95;91.23
71785;BME280;59633;52.266;5.134;2022-08-21T06:52:15;101799.09;;;17.00;90.63
71785;BME280;59633;52.266;5.134;2022-08-21T06:54:40;101796.91;;;17.09;90.82
71785;BME280;59633;52.266;5.134;2022-08-21T06:57:06;101799.03;;;17.19;91.17
71785;BME280;59633;52.266;5.134;2022-08-21T06:59:31;101790.63;;;17.22;90.38
71785;BME280;59633;52.266;5.134;2022-08-21T07:01:57;101791.13;;;17.30;90.49
71785;BME280;59633;52.266;5.134;2022-08-21T07:04:22;101799.56;;;17.39;90.60
71785;BME280;59633;52.266;5.134;2022-08-21T07:06:48;101798.69;;;17.45;89.73
71785;BME280;59633;52.266;5.134;2022-08-21T07:09:13;101800.41;;;17.51;90.04
71785;BME280;59633;52.266;5.134;2022-08-21T07:11:39;101802.16;;;17.58;89.74
71785;BME280;59633;52.266;5.134;2022-08-21T07:14:04;101794.06;;;17.64;89.32
71785;BME280;59633;52.266;5.134;2022-08-21T07:16:29;101799.84;;;17.73;88.89
71785;BME280;59633;52.266;5.134;2022-08-21T07:18:55;101799.19;;;17.78;88.67
71785;BME280;59633;52.266;5.134;2022-08-21T07:21:20;101798.50;;;17.82;88.65
71785;BME280;59633;52.266;5.134;2022-08-21T07:23:47;101800.03;;;17.90;89.42
71785;BME280;59633;52.266;5.134;2022-08-21T07:26:13;101801.75;;;17.96;88.38
71785;BME280;59633;52.266;5.134;2022-08-21T07:28:38;101801.91;;;18.01;88.46
71785;BME280;59633;52.266;5.134;2022-08-21T07:31:04;101796.44;;;18.08;88.26
71785;BME280;59633;52.266;5.134;2022-08-21T07:33:30;101805.09;;;18.15;88.21
71785;BME280;59633;52.266;5.134;2022-08-21T07:35:57;101795.97;;;18.23;87.81
71785;BME280;59633;52.266;5.134;2022-08-21T07:38:22;101802.78;;;18.30;87.96
71785;BME280;59633;52.266;5.134;2022-08-21T07:40:48;101803.34;;;18.33;87.46
71785;BME280;59633;52.266;5.134;2022-08-21T07:43:14;101805.31;;;18.37;87.00
71785;BME280;59633;52.266;5.134;2022-08-21T07:45:41;101813.19;;;18.44;86.92
71785;BME280;59633;52.266;5.134;2022-08-21T07:48:07;101813.53;;;18.47;86.86
71785;BME280;59633;52.266;5.134;2022-08-21T07:50:32;101810.16;;;18.52;86.57
71785;BME280;59633;52.266;5.134;2022-08-21T07:52:57;101812.22;;;18.62;86.91
71785;BME280;59633;52.266;5.134;2022-08-21T07:55:22;101815.56;;;18.69;86.42
71785;BME280;59633;52.266;5.134;2022-08-21T07:57:48;101814.38;;;18.77;86.24
71785;BME280;59633;52.266;5.134;2022-08-21T08:00:14;101810.81;;;18.83;85.38
71785;BME280;59633;52.266;5.134;2022-08-21T08:02:40;101797.38;;;18.89;85.73
71785;BME280;59633;52.266;5.134;2022-08-21T08:05:07;101794.56;;;18.96;85.36
71785;BME280;59633;52.266;5.134;2022-08-21T08:07:32;101797.06;;;19.03;85.93
71785;BME280;59633;52.266;5.134;2022-08-21T08:10:01;101807.59;;;19.09;84.99
71785;BME280;59633;52.266;5.134;2022-08-21T08:12:31;101797.34;;;19.18;85.19
71785;BME280;59633;52.266;5.134;2022-08-21T08:14:56;101807.53;;;19.21;85.13
71785;BME280;59633;52.266;5.134;2022-08-21T08:17:22;101801.47;;;19.26;84.59
71785;BME280;59633;52.266;5.134;2022-08-21T08:19:48;101809.09;;;19.34;84.24
71785;BME280;59633;52.266;5.134;2022-08-21T08:22:14;101805.00;;;19.43;84.30
71785;BME280;59633;52.266;5.134;2022-08-21T08:24:39;101797.16;;;19.54;83.99
71785;BME280;59633;52.266;5.134;2022-08-21T08:27:05;101800.78;;;19.64;83.59
71785;BME280;59633;52.266;5.134;2022-08-21T08:29:30;101792.69;;;19.71;83.40
71785;BME280;59633;52.266;5.134;2022-08-21T08:31:55;101797.91;;;19.83;83.29
71785;BME280;59633;52.266;5.134;2022-08-21T08:34:21;101792.75;;;19.93;83.38
71785;BME280;59633;52.266;5.134;2022-08-21T08:36:47;101800.06;;;20.03;81.85
71785;BME280;59633;52.266;5.134;2022-08-21T08:39:13;101788.81;;;20.18;82.04
71785;BME280;59633;52.266;5.134;2022-08-21T08:41:38;101778.25;;;20.28;80.79
71785;BME280;59633;52.266;5.134;2022-08-21T08:44:04;101784.13;;;20.47;80.08
71785;BME280;59633;52.266;5.134;2022-08-21T08:46:46;101789.81;;;20.56;80.31
71785;BME280;59633;52.266;5.134;2022-08-21T08:49:18;101788.66;;;20.68;80.25
71785;BME280;59633;52.266;5.134;2022-08-21T08:51:50;101788.75;;;20.79;80.69
71785;BME280;59633;52.266;5.134;2022-08-21T08:54:20;101786.16;;;20.84;79.71
71785;BME280;59633;52.266;5.134;2022-08-21T08:56:49;101784.66;;;20.93;78.69
71785;BME280;59633;52.266;5.134;2022-08-21T08:59:22;101785.81;;;21.02;78.98
71785;BME280;59633;52.266;5.134;2022-08-21T09:01:50;101783.03;;;21.19;78.30
71785;BME280;59633;52.266;5.134;2022-08-21T09:04:18;101778.34;;;21.32;77.02
71785;BME280;59633;52.266;5.134;2022-08-21T09:07:01;101782.91;;;21.36;76.97
71785;BME280;59633;52.266;5.134;2022-08-21T09:09:33;101782.75;;;21.43;76.76
71785;BME280;59633;52.266;5.134;2022-08-21T09:12:04;101783.22;;;21.40;77.16
71785;BME280;59633;52.266;5.134;2022-08-21T09:20:56;101775.97;;;21.67;75.81
71785;BME280;59633;52.266;5.134;2022-08-21T09:27:45;101789.88;;;21.37;74.16
71785;BME280;59633;52.266;5.134;2022-08-21T09:30:11;101788.25;;;21.63;75.15
71785;BME280;59633;52.266;5.134;2022-08-21T09:32:37;101794.44;;;21.69;74.28
71785;BME280;59633;52.266;5.134;2022-08-21T09:35:15;101792.25;;;21.61;73.05
71785;BME280;59633;52.266;5.134;2022-08-21T09:37:58;101788.06;;;21.75;73.36
71785;BME280;59633;52.266;5.134;2022-08-21T09:40:44;101789.97;;;21.80;72.79
71785;BME280;59633;52.266;5.134;2022-08-21T09:45:39;101787.19;;;22.12;72.04
71785;BME280;59633;52.266;5.134;2022-08-21T09:48:08;101780.56;;;22.20;71.56
71785;BME280;59633;52.266;5.134;2022-08-21T09:50:33;101782.63;;;22.07;71.06
71785;BME280;59633;52.266;5.134;2022-08-21T09:52:59;101777.34;;;22.18;70.94
71785;BME280;59633;52.266;5.134;2022-08-21T09:55:34;101777.16;;;22.30;71.62
71785;BME280;59633;52.266;5.134;2022-08-21T09:58:21;101778.75;;;22.25;70.78
71785;BME280;59633;52.266;5.134;2022-08-21T10:00:58;101775.75;;;22.17;71.83
71785;BME280;59633;52.266;5.134;2022-08-21T10:03:23;101788.34;;;22.21;71.93
71785;BME280;59633;52.266;5.134;2022-08-21T10:06:19;101780.31;;;22.21;72.13
71785;BME280;59633;52.266;5.134;2022-08-21T10:08:37;101781.44;;;22.31;70.98
71785;BME280;59633;52.266;5.134;2022-08-21T10:13:31;101782.22;;;22.26;70.68
71785;BME280;59633;52.266;5.134;2022-08-21T10:18:45;101773.78;;;22.02;70.51
71785;BME280;59633;52.266;5.134;2022-08-21T10:21:23;101771.84;;;21.92;71.77
71785;BME280;59633;52.266;5.134;2022-08-21T10:34:10;101786.69;;;21.73;71.42
71785;BME280;59633;52.266;5.134;2022-08-21T10:36:45;101780.53;;;21.72;72.32
71785;BME280;59633;52.266;5.134;2022-08-21T10:44:24;101783.75;;;21.74;73.01
71785;BME280;59633;52.266;5.134;2022-08-21T10:49:22;101769.66;;;21.84;69.18
71785;BME280;59633;52.266;5.134;2022-08-21T10:54:40;101765.38;;;22.31;68.54
71785;BME280;59633;52.266;5.134;2022-08-21T10:57:11;101762.75;;;22.46;67.04
71785;BME280;59633;52.266;5.134;2022-08-21T10:59:46;101762.53;;;22.58;66.44
71785;BME280;59633;52.266;5.134;2022-08-21T11:02:17;101760.66;;;22.68;65.28
71785;BME280;59633;52.266;5.134;2022-08-21T11:04:50;101753.75;;;22.78;66.26
71785;BME280;59633;52.266;5.134;2022-08-21T11:07:19;101756.94;;;22.80;64.17
71785;BME280;59633;52.266;5.134;2022-08-21T11:09:46;101761.28;;;22.91;62.63
71785;BME280;59633;52.266;5.134;2022-08-21T11:12:31;101756.50;;;23.03;62.84
71785;BME280;59633;52.266;5.134;2022-08-21T11:17:29;101755.41;;;23.40;63.07
71785;BME280;59633;52.266;5.134;2022-08-21T11:20:07;101757.56;;;23.38;61.02
71785;BME280;59633;52.266;5.134;2022-08-21T11:22:38;101754.63;;;23.45;61.23
71785;BME280;59633;52.266;5.134;2022-08-21T11:25:17;101766.44;;;23.39;62.73
71785;BME280;59633;52.266;5.134;2022-08-21T11:27:49;101765.59;;;23.18;62.22
71785;BME280;59633;52.266;5.134;2022-08-21T11:30:16;101772.31;;;23.25;61.83
71785;BME280;59633;52.266;5.134;2022-08-21T11:32:47;101768.22;;;22.92;61.91
71785;BME280;59633;52.266;5.134;2022-08-21T11:35:21;101768.03;;;23.19;63.43
71785;BME280;59633;52.266;5.134;2022-08-21T11:37:54;101766.41;;;23.34;62.82
71785;BME280;59633;52.266;5.134;2022-08-21T11:40:33;101764.25;;;23.46;59.70
71785;BME280;59633;52.266;5.134;2022-08-21T11:43:12;101759.66;;;23.72;59.24
71785;BME280;59633;52.266;5.134;2022-08-21T11:45:45;101767.75;;;23.82;59.72
71785;BME280;59633;52.266;5.134;2022-08-21T11:50:37;101782.72;;;23.99;58.14
71785;BME280;59633;52.266;5.134;2022-08-21T11:53:07;101776.34;;;23.84;58.99
71785;BME280;59633;52.266;5.134;2022-08-21T11:55:38;101774.97;;;23.87;56.31
71785;BME280;59633;52.266;5.134;2022-08-21T12:00:51;101777.38;;;23.99;58.24
71785;BME280;59633;52.266;5.134;2022-08-21T12:05:53;101770.81;;;24.31;58.22
71785;BME280;59633;52.266;5.134;2022-08-21T12:08:27;101768.19;;;24.10;56.45
71785;BME280;59633;52.266;5.134;2022-08-21T12:13:38;101772.47;;;24.16;55.43
71785;BME280;59633;52.266;5.134;2022-08-21T12:18:32;101774.22;;;24.47;55.95
71785;BME280;59633;52.266;5.134;2022-08-21T12:20:59;101767.81;;;24.37;55.90
71785;BME280;59633;52.266;5.134;2022-08-21T12:23:26;101778.81;;;24.41;54.42
71785;BME280;59633;52.266;5.134;2022-08-21T12:25:59;101776.94;;;24.36;54.42
71785;BME280;59633;52.266;5.134;2022-08-21T12:28:25;101781.88;;;24.14;56.03
71785;BME280;59633;52.266;5.134;2022-08-21T12:30:51;101777.56;;;24.23;56.32
71785;BME280;59633;52.266;5.134;2022-08-21T12:33:22;101781.59;;;24.15;56.63
71785;BME280;59633;52.266;5.134;2022-08-21T12:35:48;101780.84;;;24.04;56.99
71785;BME280;59633;52.266;5.134;2022-08-21T12:38:15;101789.41;;;24.12;56.87
71785;BME280;59633;52.266;5.134;2022-08-21T12:40:43;101788.91;;;23.99;57.21
71785;BME280;59633;52.266;5.134;2022-08-21T12:43:12;101787.00;;;24.05;56.70
71785;BME280;59633;52.266;5.134;2022-08-21T12:45:42;101785.69;;;24.02;57.00
71785;BME280;59633;52.266;5.134;2022-08-21T12:48:10;101792.91;;;24.02;57.16
71785;BME280;59633;52.266;5.134;2022-08-21T12:53:22;101786.72;;;24.12;56.53
71785;BME280;59633;52.266;5.134;2022-08-21T12:55:50;101788.81;;;24.20;57.08
71785;BME280;59633;52.266;5.134;2022-08-21T12:58:19;101790.91;;;24.38;54.92
71785;BME280;59633;52.266;5.134;2022-08-21T13:00:49;101787.16;;;24.39;55.76
71785;BME280;59633;52.266;5.134;2022-08-21T13:03:15;101787.59;;;24.62;55.26
71785;BME280;59633;52.266;5.134;2022-08-21T13:05:40;101784.69;;;24.48;53.24
71785;BME280;59633;52.266;5.134;2022-08-21T13:08:06;101783.31;;;24.61;54.86
71785;BME280;59633;52.266;5.134;2022-08-21T13:10:33;101790.59;;;24.60;53.20
71785;BME280;59633;52.266;5.134;2022-08-21T13:13:00;101786.81;;;24.61;54.32
71785;BME280;59633;52.266;5.134;2022-08-21T13:15:34;101795.13;;;24.65;55.16
71785;BME280;59633;52.266;5.134;2022-08-21T13:18:00;101791.41;;;24.56;55.19
71785;BME280;59633;52.266;5.134;2022-08-21T13:20:30;101794.38;;;24.44;55.66
71785;BME280;59633;52.266;5.134;2022-08-21T13:22:56;101785.03;;;24.26;55.31
71785;BME280;59633;52.266;5.134;2022-08-21T13:25:25;101797.66;;;24.31;56.34
71785;BME280;59633;52.266;5.134;2022-08-21T13:27:58;101798.50;;;24.16;55.40
71785;BME280;59633;52.266;5.134;2022-08-21T13:30:24;101795.81;;;24.16;56.17
71785;BME280;59633;52.266;5.134;2022-08-21T13:32:55;101788.31;;;24.18;55.62
71785;BME280;59633;52.266;5.134;2022-08-21T13:35:28;101789.31;;;24.32;54.89
71785;BME280;59633;52.266;5.134;2022-08-21T13:37:55;101786.88;;;24.41;56.35
71785;BME280;59633;52.266;5.134;2022-08-21T13:40:25;101796.53;;;24.42;55.22
71785;BME280;59633;52.266;5.134;2022-08-21T13:42:50;101790.44;;;24.21;54.81
71785;BME280;59633;52.266;5.134;2022-08-21T13:45:52;101791.59;;;23.94;53.85
71785;BME280;59633;52.266;5.134;2022-08-21T13:48:07;101786.72;;;24.12;53.79